createdAt,value
2022-09-06T00:02:04.570Z,14.94
2022-09-06T00:04:31.399Z,14.81
2022-09-06T00:07:02.291Z,14.76
2022-09-06T00:09:29.065Z,14.77
2022-09-06T00:12:04.164Z,14.74
2022-09-06T00:14:47.585Z,14.77
2022-09-06T00:17:17.704Z,14.67
2022-09-06T00:19:47.257Z,14.66
2022-09-06T00:22:14.571Z,14.56
2022-09-06T00:24:41.418Z,14.54
2022-09-06T00:27:09.276Z,14.61
2022-09-06T00:29:39.149Z,14.61
2022-09-06T00:32:09.305Z,14.67
2022-09-06T00:34:37.986Z,14.66
2022-09-06T00:37:04.777Z,14.57
2022-09-06T00:39:31.688Z,14.50
2022-09-06T00:41:58.424Z,14.56
2022-09-06T00:44:25.195Z,14.53
2022-09-06T00:52:44.102Z,14.53
2022-09-06T00:55:30.501Z,14.53
2022-09-06T00:58:03.950Z,14.56
2022-09-06T01:00:40.394Z,14.52
2022-09-06T01:03:16.801Z,14.56
2022-09-06T01:06:07.798Z,14.48
2022-09-06T01:08:42.670Z,14.43
2022-09-06T01:11:46.227Z,14.48
2022-09-06T01:37:52.371Z,14.26
2022-09-06T01:40:19.412Z,14.23
2022-09-06T01:42:50.449Z,14.31
2022-09-06T01:46:07.197Z,14.49
2022-09-06T01:49:41.802Z,14.53
2022-09-06T01:52:21.327Z,14.42
2022-09-06T02:01:03.499Z,14.23
2022-09-06T02:04:06.876Z,14.03
2022-09-06T02:06:40.582Z,13.98
2022-09-06T02:21:49.223Z,14.05
2022-09-06T02:24:23.692Z,14.16
2022-09-06T02:29:45.814Z,14.09
2022-09-06T02:32:14.837Z,14.13
2022-09-06T02:34:49.647Z,14.14
2022-09-06T02:37:23.788Z,14.18
2022-09-06T02:39:50.732Z,14.04
2022-09-06T02:42:20.735Z,14.07
2022-09-06T02:44:47.573Z,14.04
2022-09-06T02:47:21.047Z,14.10
2022-09-06T02:55:16.606Z,13.99
2022-09-06T02:57:45.509Z,13.82
2022-09-06T03:03:27.810Z,13.71
2022-09-06T03:06:01.038Z,13.68
2022-09-06T03:20:09.570Z,13.75
2022-09-06T03:22:40.940Z,13.81
2022-09-06T03:25:09.355Z,13.94
2022-09-06T03:27:42.220Z,13.99
2022-09-06T03:32:49.541Z,13.87
2022-09-06T03:38:08.601Z,13.85
2022-09-06T03:40:35.442Z,13.89
2022-09-06T03:43:07.451Z,13.91
2022-09-06T03:45:39.512Z,13.91
2022-09-06T03:48:15.404Z,13.87
2022-09-06T03:51:13.166Z,13.75
2022-09-06T03:53:40.661Z,13.74
2022-09-06T03:59:09.252Z,13.48
2022-09-06T04:01:41.835Z,13.55
2022-09-06T04:04:16.106Z,13.67
2022-09-06T04:06:42.877Z,13.56
2022-09-06T04:09:09.638Z,13.59
2022-09-06T04:11:39.019Z,13.66
2022-09-06T04:14:07.284Z,13.69
2022-09-06T04:16:37.232Z,13.55
2022-09-06T04:19:08.054Z,13.43
2022-09-06T04:21:37.240Z,13.47
2022-09-06T04:24:04.063Z,13.51
2022-09-06T04:29:44.247Z,13.51
2022-09-06T04:32:12.827Z,13.50
2022-09-06T04:34:39.859Z,13.54
2022-09-06T04:37:06.678Z,13.55
2022-09-06T04:39:33.494Z,13.55
2022-09-06T04:42:00.564Z,13.71
2022-09-06T04:44:28.825Z,13.77
2022-09-06T04:47:27.018Z,13.65
2022-09-06T04:50:13.284Z,13.68
2022-09-06T04:52:41.065Z,13.74
2022-09-06T04:55:16.569Z,13.80
2022-09-06T04:57:46.639Z,13.91
2022-09-06T05:00:22.693Z,13.86
2022-09-06T05:02:50.613Z,13.74
2022-09-06T05:05:24.838Z,13.70
2022-09-06T05:10:27.648Z,13.73
2022-09-06T05:12:57.268Z,13.64
2022-09-06T05:15:24.483Z,13.74
2022-09-06T05:17:53.947Z,13.76
2022-09-06T05:20:22.791Z,13.81
2022-09-06T05:22:54.443Z,13.85
2022-09-06T05:25:27.551Z,13.76
2022-09-06T05:28:08.787Z,13.70
2022-09-06T05:30:38.493Z,13.81
2022-09-06T05:33:11.952Z,13.87
2022-09-06T05:35:41.360Z,13.95
2022-09-06T05:38:08.169Z,14.05
2022-09-06T05:40:34.830Z,14.17
2022-09-06T05:43:05.710Z,14.21
2022-09-06T05:45:39.074Z,14.08
2022-09-06T05:48:08.421Z,14.23
2022-09-06T05:50:35.232Z,14.35
2022-09-06T05:53:07.716Z,14.44
2022-09-06T05:55:41.126Z,14.57
2022-09-06T05:58:09.677Z,14.62
2022-09-06T06:00:36.645Z,14.68
2022-09-06T06:05:51.285Z,14.65
2022-09-06T06:08:18.325Z,14.86
2022-09-06T06:10:48.619Z,14.90
2022-09-06T06:13:16.312Z,14.96
2022-09-06T06:15:42.993Z,15.06
2022-09-06T06:18:09.682Z,15.11
2022-09-06T06:20:36.417Z,15.20
2022-09-06T06:23:03.087Z,15.16
2022-09-06T06:25:29.825Z,15.22
2022-09-06T06:27:56.546Z,15.31
2022-09-06T06:30:23.450Z,15.53
2022-09-06T06:32:50.266Z,15.54
2022-09-06T06:35:16.995Z,15.71
2022-09-06T06:37:44.813Z,15.74
2022-09-06T06:40:11.687Z,15.64
2022-09-06T06:42:38.431Z,15.63
2022-09-06T06:45:05.637Z,15.65
2022-09-06T06:47:32.357Z,15.63
2022-09-06T06:49:59.058Z,15.82
2022-09-06T06:52:25.653Z,15.87
2022-09-06T06:54:52.585Z,15.90
2022-09-06T06:57:19.270Z,15.77
2022-09-06T06:59:46.088Z,15.70
2022-09-06T07:02:17.420Z,15.93
2022-09-06T07:04:44.205Z,15.91
2022-09-06T07:10:34.831Z,15.96
2022-09-06T07:18:59.080Z,16.23
2022-09-06T07:30:18.069Z,16.70
2022-09-06T07:32:45.868Z,16.67
2022-09-06T07:35:53.330Z,16.62
2022-09-06T07:38:30.628Z,16.75
2022-09-06T07:48:00.178Z,17.03
2022-09-06T09:15:51.970Z,19.52
2022-09-06T09:39:45.380Z,20.63
2022-09-06T10:05:38.893Z,20.59
2022-09-06T10:08:22.433Z,20.67
2022-09-06T10:10:49.592Z,20.71
2022-09-06T10:13:22.847Z,20.73
2022-09-06T10:15:52.722Z,21.17
2022-09-06T10:18:36.894Z,21.32
2022-09-06T10:21:05.621Z,21.11
2022-09-06T10:27:05.186Z,21.41
2022-09-06T10:29:53.190Z,21.26
2022-09-06T10:33:00.491Z,21.23
2022-09-06T10:38:28.523Z,21.29
2022-09-06T10:44:04.139Z,21.77
2022-09-06T10:46:35.158Z,21.72
2022-09-06T10:52:02.173Z,21.70
2022-09-06T11:03:58.256Z,21.05
2022-09-06T11:06:35.743Z,21.41
2022-09-06T11:12:12.372Z,21.63
2022-09-06T11:14:40.738Z,21.85
2022-09-06T11:17:14.183Z,22.19
2022-09-06T11:20:00.601Z,22.52
2022-09-06T11:22:42.860Z,22.57
2022-09-06T11:25:40.753Z,22.30
2022-09-06T11:28:15.537Z,22.30
2022-09-06T11:30:48.280Z,22.31
2022-09-06T11:33:28.402Z,22.34
2022-09-06T11:36:20.434Z,22.27
2022-09-06T11:39:02.422Z,21.89
2022-09-06T11:41:32.732Z,21.94
2022-09-06T11:44:46.092Z,22.12
2022-09-06T11:47:40.667Z,22.23
2022-09-06T11:50:22.503Z,22.31
2022-09-06T11:53:04.911Z,22.08
2022-09-06T11:55:55.740Z,21.76
2022-09-06T11:58:42.514Z,22.07
2022-09-06T12:01:16.759Z,22.48
2022-09-06T12:04:05.962Z,22.74
2022-09-06T12:06:40.829Z,22.68
2022-09-06T12:09:28.118Z,22.62
2022-09-06T12:11:56.715Z,22.82
2022-09-06T12:14:29.314Z,22.83
2022-09-06T12:16:56.323Z,23.12
2022-09-06T12:20:05.530Z,23.07
2022-09-06T12:22:40.999Z,23.43
2022-09-06T12:25:41.198Z,23.38
2022-09-06T12:28:22.778Z,23.15
2022-09-06T12:30:51.280Z,22.79
2022-09-06T12:33:42.335Z,22.98
2022-09-06T12:36:20.438Z,22.93
2022-09-06T12:39:12.963Z,23.53
2022-09-06T12:41:47.607Z,23.84
2022-09-06T12:44:21.477Z,23.86
2022-09-06T12:46:51.807Z,23.33
2022-09-06T12:49:21.889Z,23.12
2022-09-06T12:51:51.590Z,23.38
2022-09-06T12:54:45.103Z,23.63
2022-09-06T12:57:40.956Z,22.79
2022-09-06T13:00:08.111Z,22.50
2022-09-06T13:02:44.889Z,22.08
2022-09-06T13:05:19.331Z,22.04
2022-09-06T13:07:55.566Z,22.00
2022-09-06T13:10:35.566Z,22.01
2022-09-06T13:13:05.481Z,22.18
2022-09-06T13:15:33.711Z,22.25
2022-09-06T13:18:38.479Z,22.48
2022-09-06T13:21:12.195Z,22.85
2022-09-06T13:23:55.624Z,24.15
2022-09-06T13:26:42.720Z,23.81
2022-09-06T13:29:30.850Z,23.98
2022-09-06T13:32:06.426Z,23.80
2022-09-06T13:34:42.147Z,23.92
2022-09-06T13:37:20.593Z,24.38
2022-09-06T13:39:47.834Z,24.19
2022-09-06T13:42:28.525Z,23.64
2022-09-06T13:45:01.395Z,23.14
2022-09-06T13:47:29.491Z,23.01
2022-09-06T13:49:58.325Z,23.06
2022-09-06T13:52:27.258Z,22.87
2022-09-06T13:54:55.266Z,22.95
2022-09-06T13:57:24.485Z,22.93
2022-09-06T13:59:51.539Z,22.98
2022-09-06T14:02:21.642Z,22.96
2022-09-06T14:04:48.702Z,23.20
2022-09-06T14:07:18.364Z,23.11
2022-09-06T14:09:51.175Z,23.24
2022-09-06T14:12:21.135Z,23.14
2022-09-06T14:14:51.095Z,23.18
2022-09-06T14:17:20.876Z,23.20
2022-09-06T14:19:48.635Z,24.10
2022-09-06T14:22:15.322Z,24.91
2022-09-06T14:24:44.895Z,25.11
2022-09-06T14:27:17.871Z,24.54
2022-09-06T14:29:44.543Z,25.16
2022-09-06T14:32:11.333Z,25.23
2022-09-06T14:34:38.065Z,25.25
2022-09-06T14:37:04.712Z,25.98
2022-09-06T14:39:31.646Z,26.38
2022-09-06T14:42:00.242Z,26.52
2022-09-06T14:44:33.113Z,26.64
2022-09-06T14:47:04.980Z,27.14
2022-09-06T14:49:43.551Z,27.33
2022-09-06T14:52:13.259Z,27.66
2022-09-06T14:54:41.679Z,27.96
2022-09-06T14:57:08.438Z,28.13
2022-09-06T14:59:35.374Z,28.19
2022-09-06T15:02:04.805Z,28.44
2022-09-06T15:04:31.741Z,28.80
2022-09-06T15:07:07.309Z,28.51
2022-09-06T15:12:49.809Z,28.29
2022-09-06T15:21:27.242Z,29.21
2022-09-06T15:27:00.328Z,29.75
2022-09-06T15:32:20.582Z,30.84
2022-09-06T15:34:48.192Z,30.30
2022-09-06T15:37:22.268Z,30.16
2022-09-06T15:40:10.523Z,30.53
2022-09-06T15:42:40.913Z,30.50
2022-09-06T15:50:51.298Z,30.84
2022-09-06T15:53:21.388Z,30.14
2022-09-06T15:55:59.354Z,30.37
2022-09-06T15:58:37.715Z,30.04
2022-09-06T16:07:03.541Z,28.38
2022-09-06T16:21:37.373Z,23.94
2022-09-06T16:24:07.060Z,22.76
2022-09-06T16:26:40.751Z,22.21
2022-09-06T16:29:11.060Z,21.58
2022-09-06T16:31:40.493Z,21.14
2022-09-06T16:34:11.688Z,20.93
2022-09-06T16:36:53.068Z,20.72
2022-09-06T16:39:29.954Z,20.40
2022-09-06T16:41:56.829Z,20.21
2022-09-06T16:44:46.732Z,20.27
2022-09-06T16:47:24.211Z,20.00
2022-09-06T16:49:50.847Z,19.79
2022-09-06T16:52:17.787Z,19.58
2022-09-06T16:54:44.870Z,19.37
2022-09-06T16:57:11.512Z,19.30
2022-09-06T16:59:38.694Z,19.10
2022-09-06T17:02:05.739Z,18.93
2022-09-06T17:04:32.671Z,18.79
2022-09-06T17:06:59.339Z,18.72
2022-09-06T17:09:26.010Z,18.58
2022-09-06T17:11:52.713Z,18.39
2022-09-06T17:14:19.604Z,18.37
2022-09-06T17:17:05.043Z,18.37
2022-09-06T17:19:36.658Z,18.23
2022-09-06T17:22:04.388Z,18.14
2022-09-06T17:25:39.594Z,18.09
2022-09-06T17:28:06.342Z,18.07
2022-09-06T17:30:38.392Z,18.14
2022-09-06T17:33:05.966Z,18.27
2022-09-06T17:35:33.897Z,18.25
2022-09-06T17:38:00.623Z,18.12
2022-09-06T17:40:27.475Z,17.95
2022-09-06T17:42:54.183Z,17.81
2022-09-06T17:45:22.316Z,17.73
2022-09-06T17:47:49.156Z,17.65
2022-09-06T17:50:17.541Z,17.59
2022-09-06T17:52:45.336Z,17.59
2022-09-06T17:55:12.288Z,17.55
2022-09-06T17:57:40.567Z,17.55
2022-09-06T18:00:07.930Z,17.54
2022-09-06T18:02:37.668Z,17.54
2022-09-06T18:05:04.844Z,17.51
2022-09-06T18:07:31.596Z,17.43
2022-09-06T18:09:58.629Z,17.41
2022-09-06T18:12:26.263Z,17.47
2022-09-06T18:14:53.118Z,17.41
2022-09-06T18:17:20.405Z,17.35
2022-09-06T18:19:47.092Z,17.31
2022-09-06T18:22:13.933Z,17.26
2022-09-06T18:24:40.729Z,17.31
2022-09-06T18:29:54.405Z,17.18
2022-09-06T18:35:10.364Z,17.17
2022-09-06T19:41:31.675Z,15.59
2022-09-06T20:02:55.975Z,15.30
2022-09-06T21:02:51.861Z,14.26
2022-09-06T21:14:03.965Z,14.21
2022-09-06T21:16:46.610Z,14.07
2022-09-06T21:19:53.172Z,13.98
2022-09-06T21:31:26.539Z,13.92
2022-09-06T21:34:05.167Z,13.79
2022-09-06T21:36:41.266Z,13.75
2022-09-06T21:39:10.148Z,13.81
2022-09-06T21:41:49.304Z,13.88
2022-09-06T21:47:22.697Z,13.65
2022-09-06T21:49:50.872Z,13.51
2022-09-06T21:55:22.668Z,13.40
2022-09-06T21:57:53.652Z,13.34
2022-09-06T22:03:14.060Z,13.48
2022-09-06T22:13:49.139Z,13.23
2022-09-06T22:31:19.560Z,13.30
2022-09-06T22:44:52.902Z,12.91
2022-09-06T22:47:24.150Z,12.78
2022-09-06T22:49:52.111Z,12.88
2022-09-06T22:52:24.034Z,12.88
2022-09-06T23:07:29.290Z,12.59
2022-09-06T23:13:10.558Z,12.61
2022-09-06T23:22:21.495Z,12.50
2022-09-06T23:31:07.215Z,12.56
2022-09-06T23:33:37.958Z,12.49
2022-09-06T23:48:06.848Z,12.32
2022-09-06T23:51:02.896Z,12.27
2022-09-06T23:53:31.417Z,12.20
2022-09-06T23:58:48.050Z,12.28
